createdAt,value
2023-03-06T00:00:51.364Z,8.24
2023-03-06T00:03:19.194Z,8.28
2023-03-06T00:05:47.057Z,8.35
2023-03-06T00:08:15.245Z,8.30
2023-03-06T00:10:42.999Z,8.11
2023-03-06T00:13:13.805Z,8.01
2023-03-06T00:15:43.520Z,7.85
2023-03-06T00:18:11.334Z,8.06
2023-03-06T00:20:41.398Z,8.01
2023-03-06T00:23:09.411Z,7.66
2023-03-06T00:25:38.724Z,7.94
2023-03-06T00:28:07.018Z,8.02
2023-03-06T00:30:34.920Z,7.95
2023-03-06T00:33:03.980Z,8.07
2023-03-06T00:35:31.883Z,7.73
2023-03-06T00:38:00.159Z,8.07
2023-03-06T00:40:28.318Z,8.16
2023-03-06T00:42:56.088Z,8.20
2023-03-06T00:45:23.902Z,8.17
2023-03-06T00:47:51.814Z,8.12
2023-03-06T00:50:21.296Z,8.07
2023-03-06T00:52:49.161Z,8.17
2023-03-06T00:55:17.145Z,8.23
2023-03-06T00:57:44.899Z,8.17
2023-03-06T01:00:14.923Z,8.18
2023-03-06T01:02:42.657Z,8.18
2023-03-06T01:05:10.675Z,8.19
2023-03-06T01:07:39.778Z,8.13
2023-03-06T01:10:09.478Z,8.02
2023-03-06T01:12:37.539Z,7.99
2023-03-06T01:15:06.517Z,7.93
2023-03-06T01:17:34.224Z,7.95
2023-03-06T01:20:01.984Z,7.88
2023-03-06T01:22:29.868Z,7.87
2023-03-06T01:24:58.959Z,7.95
2023-03-06T01:27:26.808Z,7.96
2023-03-06T01:29:54.601Z,8.06
2023-03-06T01:32:22.528Z,8.09
2023-03-06T01:34:50.339Z,8.22
2023-03-06T01:37:18.138Z,8.18
2023-03-06T01:39:45.888Z,8.18
2023-03-06T01:42:14.970Z,8.23
2023-03-06T01:44:58.971Z,8.26
2023-03-06T01:47:26.856Z,8.26
2023-03-06T01:49:54.786Z,8.25
2023-03-06T01:52:26.706Z,8.07
2023-03-06T01:54:59.184Z,8.04
2023-03-06T01:57:31.975Z,8.22
2023-03-06T02:00:05.621Z,8.27
2023-03-06T02:02:33.605Z,8.29
2023-03-06T02:05:03.221Z,8.27
2023-03-06T02:07:31.764Z,8.28
2023-03-06T02:09:59.932Z,8.20
2023-03-06T02:12:29.438Z,8.21
2023-03-06T02:14:58.266Z,8.22
2023-03-06T02:17:26.678Z,7.63
2023-03-06T02:20:01.106Z,7.52
2023-03-06T02:22:37.288Z,7.79
2023-03-06T02:25:10.614Z,7.95
2023-03-06T02:27:40.055Z,7.67
2023-03-06T02:30:09.822Z,7.68
2023-03-06T02:32:37.668Z,7.90
2023-03-06T02:35:07.200Z,7.95
2023-03-06T02:37:35.066Z,8.01
2023-03-06T02:40:10.318Z,7.88
2023-03-06T02:42:39.520Z,7.76
2023-03-06T02:45:11.762Z,7.49
2023-03-06T02:47:39.614Z,7.55
2023-03-06T02:50:07.800Z,7.61
2023-03-06T02:52:35.503Z,7.50
2023-03-06T02:55:03.475Z,7.23
2023-03-06T02:57:31.224Z,7.08
2023-03-06T03:00:00.696Z,7.22
2023-03-06T03:02:28.683Z,7.51
2023-03-06T03:04:56.517Z,6.88
2023-03-06T03:07:24.311Z,7.17
2023-03-06T03:09:52.029Z,7.29
2023-03-06T03:12:19.743Z,7.34
2023-03-06T03:14:47.508Z,7.01
2023-03-06T03:17:17.188Z,7.37
2023-03-06T03:19:44.987Z,7.39
2023-03-06T03:22:12.711Z,7.12
2023-03-06T03:24:42.042Z,6.93
2023-03-06T03:27:09.978Z,6.71
2023-03-06T03:29:38.019Z,7.03
2023-03-06T03:32:06.564Z,6.91
2023-03-06T03:34:35.794Z,6.63
2023-03-06T03:37:03.594Z,6.89
2023-03-06T03:39:31.352Z,7.06
2023-03-06T03:41:59.200Z,7.18
2023-03-06T03:44:27.100Z,7.20
2023-03-06T03:46:54.835Z,7.18
2023-03-06T03:49:22.619Z,7.13
2023-03-06T03:51:52.702Z,7.08
2023-03-06T03:54:20.392Z,6.99
2023-03-06T03:56:48.105Z,7.36
2023-03-06T03:59:15.889Z,7.22
2023-03-06T04:01:44.606Z,7.32
2023-03-06T04:04:13.750Z,7.27
2023-03-06T04:06:41.559Z,7.20
2023-03-06T04:09:11.055Z,7.35
2023-03-06T04:11:38.841Z,7.26
2023-03-06T04:14:08.261Z,7.10
2023-03-06T04:16:36.080Z,7.11
2023-03-06T04:19:03.914Z,7.03
2023-03-06T04:21:31.697Z,6.99
2023-03-06T04:23:59.544Z,6.96
2023-03-06T04:26:28.821Z,7.10
2023-03-06T04:28:56.558Z,7.08
2023-03-06T04:31:24.379Z,6.85
2023-03-06T04:33:52.147Z,6.96
2023-03-06T04:36:27.916Z,6.90
2023-03-06T04:38:55.765Z,6.92
2023-03-06T04:41:23.679Z,6.83
2023-03-06T04:43:53.562Z,6.98
2023-03-06T04:46:21.333Z,7.12
2023-03-06T04:48:49.180Z,7.35
2023-03-06T04:51:17.011Z,7.52
2023-03-06T04:53:44.824Z,7.39
2023-03-06T04:56:12.554Z,7.18
2023-03-06T04:58:40.285Z,7.12
2023-03-06T05:01:09.555Z,6.91
2023-03-06T05:03:37.417Z,6.61
2023-03-06T05:06:05.567Z,6.73
2023-03-06T05:08:33.327Z,6.58
2023-03-06T05:11:02.525Z,6.72
2023-03-06T05:13:30.576Z,6.72
2023-03-06T05:16:02.898Z,6.81
2023-03-06T05:18:32.101Z,6.89
2023-03-06T05:21:00.129Z,6.61
2023-03-06T05:23:28.051Z,6.76
2023-03-06T05:25:55.848Z,7.01
2023-03-06T05:28:23.655Z,7.34
2023-03-06T05:30:51.420Z,7.47
2023-03-06T05:33:19.355Z,7.69
2023-03-06T05:35:49.812Z,7.71
2023-03-06T05:38:18.721Z,7.75
2023-03-06T05:40:46.962Z,7.66
2023-03-06T05:43:14.651Z,7.63
2023-03-06T05:45:42.386Z,7.35
2023-03-06T05:48:12.975Z,7.27
2023-03-06T05:50:41.108Z,7.12
2023-03-06T05:53:10.222Z,6.93
2023-03-06T05:55:38.038Z,6.94
2023-03-06T05:58:05.778Z,6.97
2023-03-06T06:00:33.484Z,6.90
2023-03-06T06:03:02.129Z,7.10
2023-03-06T06:05:29.904Z,7.27
2023-03-06T06:07:57.686Z,7.15
2023-03-06T06:10:26.763Z,7.35
2023-03-06T06:12:54.505Z,7.46
2023-03-06T06:15:22.231Z,7.38
2023-03-06T06:17:49.916Z,7.16
2023-03-06T06:20:18.272Z,7.41
2023-03-06T06:22:46.162Z,7.51
2023-03-06T06:25:14.573Z,7.52
2023-03-06T06:27:44.184Z,7.32
2023-03-06T06:30:13.423Z,7.35
2023-03-06T06:32:41.314Z,7.41
2023-03-06T06:35:09.660Z,7.15
2023-03-06T06:37:37.443Z,7.10
2023-03-06T06:40:05.942Z,6.79
2023-03-06T06:42:39.835Z,6.68
2023-03-06T06:45:10.989Z,6.35
2023-03-06T06:47:41.288Z,6.37
2023-03-06T06:50:11.657Z,6.52
2023-03-06T06:52:39.402Z,6.74
2023-03-06T06:55:07.971Z,6.83
2023-03-06T06:57:35.818Z,7.09
2023-03-06T07:00:03.863Z,7.14
2023-03-06T07:02:33.606Z,7.19
2023-03-06T07:05:04.658Z,7.28
2023-03-06T07:07:35.589Z,7.17
2023-03-06T07:10:05.537Z,7.31
2023-03-06T07:12:34.967Z,7.49
2023-03-06T07:15:02.762Z,7.08
2023-03-06T07:17:32.137Z,7.04
2023-03-06T07:19:59.963Z,7.17
2023-03-06T07:22:30.314Z,7.28
2023-03-06T07:25:00.006Z,7.15
2023-03-06T07:27:27.872Z,7.17
2023-03-06T07:29:55.821Z,6.99
2023-03-06T07:32:23.635Z,6.78
2023-03-06T07:34:52.802Z,6.90
2023-03-06T07:37:21.274Z,7.05
2023-03-06T07:39:49.028Z,7.01
2023-03-06T07:42:17.241Z,7.29
2023-03-06T07:44:44.936Z,7.34
2023-03-06T07:47:14.276Z,7.43
2023-03-06T07:49:42.005Z,6.83
2023-03-06T07:52:12.774Z,7.35
2023-03-06T07:54:40.479Z,7.39
2023-03-06T07:57:08.181Z,7.30
2023-03-06T07:59:35.949Z,7.27
2023-03-06T08:02:03.694Z,6.94
2023-03-06T08:04:31.392Z,6.82
2023-03-06T08:07:00.162Z,7.06
2023-03-06T08:09:29.239Z,7.27
2023-03-06T08:11:57.000Z,7.40
2023-03-06T08:14:24.797Z,7.52
2023-03-06T08:16:52.848Z,7.29
2023-03-06T08:19:20.616Z,7.13
2023-03-06T08:21:48.326Z,7.08
2023-03-06T08:24:16.761Z,7.48
2023-03-06T08:26:46.847Z,7.14
2023-03-06T08:29:15.377Z,7.62
2023-03-06T08:31:44.470Z,7.82
2023-03-06T08:34:14.584Z,8.15
2023-03-06T08:36:42.359Z,8.11
2023-03-06T08:39:10.300Z,7.75
2023-03-06T08:41:38.747Z,7.56
2023-03-06T08:44:07.998Z,7.53
2023-03-06T08:46:36.507Z,7.44
2023-03-06T08:49:05.171Z,7.20
2023-03-06T08:51:33.236Z,7.28
2023-03-06T08:54:01.187Z,7.44
2023-03-06T08:56:30.199Z,7.59
2023-03-06T08:58:59.552Z,7.71
2023-03-06T09:01:30.519Z,7.87
2023-03-06T09:04:00.422Z,8.16
2023-03-06T09:06:31.180Z,8.29
2023-03-06T09:08:59.331Z,8.29
2023-03-06T09:11:28.118Z,8.41
2023-03-06T09:13:55.974Z,8.18
2023-03-06T09:16:24.938Z,8.44
2023-03-06T09:18:54.393Z,8.52
2023-03-06T09:21:22.746Z,8.32
2023-03-06T09:23:51.213Z,8.42
2023-03-06T09:26:19.211Z,8.24
2023-03-06T09:28:47.089Z,8.56
2023-03-06T09:31:17.618Z,8.48
2023-03-06T09:33:46.439Z,7.96
2023-03-06T09:36:18.460Z,7.50
2023-03-06T09:38:48.217Z,7.69
2023-03-06T09:41:26.231Z,8.05
2023-03-06T09:43:57.458Z,8.02
2023-03-06T09:46:31.085Z,7.77
2023-03-06T09:49:13.859Z,7.95
2023-03-06T09:51:53.520Z,7.78
2023-03-06T09:54:27.697Z,7.76
2023-03-06T09:56:55.476Z,7.77
2023-03-06T09:59:25.496Z,7.30
2023-03-06T10:02:01.332Z,7.66
2023-03-06T10:04:39.097Z,7.35
2023-03-06T10:07:15.778Z,7.93
2023-03-06T10:09:47.569Z,8.08
2023-03-06T10:12:24.840Z,8.31
2023-03-06T10:15:08.013Z,8.43
2023-03-06T10:17:38.392Z,8.13
2023-03-06T10:20:24.950Z,8.05
2023-03-06T10:23:11.827Z,7.71
2023-03-06T10:25:47.494Z,7.90
2023-03-06T10:28:18.236Z,7.86
2023-03-06T10:30:53.599Z,7.91
2023-03-06T10:33:38.781Z,8.17
2023-03-06T10:36:07.255Z,8.23
2023-03-06T10:38:38.189Z,8.22
2023-03-06T10:41:09.719Z,8.11
2023-03-06T10:43:39.334Z,8.20
2023-03-06T10:46:08.628Z,8.34
2023-03-06T10:48:39.404Z,8.57
2023-03-06T10:51:18.924Z,8.94
2023-03-06T10:53:55.000Z,9.19
2023-03-06T10:56:33.831Z,9.69
2023-03-06T10:59:08.224Z,9.58
2023-03-06T11:01:36.734Z,8.73
2023-03-06T11:04:18.226Z,9.29
2023-03-06T11:06:46.029Z,8.88
2023-03-06T11:09:23.181Z,9.07
2023-03-06T11:11:51.141Z,9.27
2023-03-06T11:14:20.823Z,9.37
2023-03-06T11:16:53.148Z,9.26
2023-03-06T11:19:24.600Z,8.61
2023-03-06T11:22:03.390Z,8.84
2023-03-06T11:24:39.048Z,9.19
2023-03-06T11:27:22.182Z,8.67
2023-03-06T11:29:52.356Z,9.11
2023-03-06T11:32:23.497Z,9.31
2023-03-06T11:34:56.033Z,9.09
2023-03-06T11:37:34.772Z,9.27
2023-03-06T11:40:14.088Z,10.01
2023-03-06T11:42:46.663Z,9.74
2023-03-06T11:45:27.498Z,9.89
2023-03-06T11:48:02.667Z,9.84
2023-03-06T11:50:35.849Z,9.46
2023-03-06T11:53:06.010Z,9.34
2023-03-06T11:55:45.717Z,8.77
2023-03-06T11:58:38.116Z,8.95
2023-03-06T12:01:11.688Z,8.87
2023-03-06T12:04:14.720Z,8.78
2023-03-06T12:06:53.844Z,9.29
2023-03-06T12:09:32.037Z,9.25
2023-03-06T12:15:20.096Z,9.82
2023-03-06T12:18:02.428Z,9.54
2023-03-06T12:20:44.756Z,9.97
2023-03-06T12:23:28.263Z,10.04
2023-03-06T12:26:03.036Z,9.20
2023-03-06T12:28:50.270Z,9.55
2023-03-06T12:31:44.739Z,9.82
2023-03-06T12:34:25.542Z,10.27
2023-03-06T12:37:09.636Z,10.37
2023-03-06T12:39:51.585Z,10.42
2023-03-06T12:42:43.002Z,10.34
2023-03-06T12:45:32.724Z,10.42
2023-03-06T12:48:01.682Z,10.24
2023-03-06T12:50:32.323Z,9.82
2023-03-06T12:53:03.114Z,10.23
2023-03-06T12:55:38.704Z,10.18
2023-03-06T12:58:35.010Z,10.30
2023-03-06T13:01:10.599Z,10.39
2023-03-06T13:03:59.551Z,10.17
2023-03-06T13:06:50.214Z,10.13
2023-03-06T13:09:29.164Z,9.89
2023-03-06T13:12:24.411Z,10.23
2023-03-06T13:14:58.752Z,9.62
2023-03-06T13:17:38.463Z,9.87
2023-03-06T13:20:30.770Z,10.26
2023-03-06T13:22:58.857Z,9.81
2023-03-06T13:25:48.831Z,10.22
2023-03-06T13:28:39.936Z,10.04
2023-03-06T13:31:18.208Z,9.86
2023-03-06T13:33:59.896Z,10.37
2023-03-06T13:36:30.401Z,10.30
2023-03-06T13:39:03.111Z,10.66
2023-03-06T13:41:54.179Z,10.63
2023-03-06T13:44:43.409Z,10.50
2023-03-06T13:48:10.631Z,10.69
2023-03-06T13:50:42.205Z,10.44
2023-03-06T13:53:54.678Z,10.87
2023-03-06T13:56:47.975Z,10.96
2023-03-06T13:59:38.535Z,10.44
2023-03-06T14:02:31.887Z,11.42
2023-03-06T14:05:00.876Z,11.56
2023-03-06T14:07:32.074Z,11.29
2023-03-06T14:10:04.050Z,11.36
2023-03-06T14:12:35.173Z,11.31
2023-03-06T14:15:07.087Z,11.13
2023-03-06T14:17:39.127Z,11.23
2023-03-06T14:20:15.698Z,11.33
2023-03-06T14:22:45.028Z,10.89
2023-03-06T14:25:18.320Z,10.49
2023-03-06T14:27:49.869Z,10.32
2023-03-06T14:30:22.615Z,11.13
2023-03-06T14:32:55.625Z,11.63
2023-03-06T14:35:26.947Z,11.72
2023-03-06T14:38:00.121Z,11.61
2023-03-06T14:40:32.606Z,10.91
2023-03-06T14:43:18.732Z,10.97
2023-03-06T14:45:52.285Z,11.54
2023-03-06T14:48:20.621Z,11.53
2023-03-06T14:50:50.553Z,10.97
2023-03-06T14:53:23.423Z,11.55
2023-03-06T14:55:54.332Z,10.98
2023-03-06T14:58:29.745Z,10.74
2023-03-06T15:01:01.291Z,10.93
2023-03-06T15:03:40.490Z,11.43
2023-03-06T15:06:09.811Z,11.48
2023-03-06T15:08:41.162Z,11.20
2023-03-06T15:11:09.059Z,11.00
2023-03-06T15:13:36.946Z,10.82
2023-03-06T15:16:07.701Z,10.98
2023-03-06T15:18:39.148Z,10.63
2023-03-06T15:21:09.675Z,10.51
2023-03-06T15:23:40.444Z,10.74
2023-03-06T15:26:29.570Z,10.60
2023-03-06T15:29:09.479Z,10.40
2023-03-06T15:31:39.079Z,9.99
2023-03-06T15:34:23.410Z,9.90
2023-03-06T15:36:54.590Z,10.20
2023-03-06T15:40:01.955Z,10.59
2023-03-06T15:42:29.985Z,10.42
2023-03-06T15:45:02.992Z,10.40
2023-03-06T15:47:30.702Z,10.14
2023-03-06T15:49:58.514Z,10.06
2023-03-06T15:52:26.255Z,10.59
2023-03-06T15:54:55.378Z,10.53
2023-03-06T15:57:25.944Z,10.22
2023-03-06T15:59:55.955Z,10.28
2023-03-06T16:02:24.677Z,10.59
2023-03-06T16:04:53.172Z,10.54
2023-03-06T16:07:21.599Z,11.06
2023-03-06T16:09:49.462Z,10.96
2023-03-06T16:12:20.233Z,11.10
2023-03-06T16:14:49.261Z,10.58
2023-03-06T16:17:17.184Z,10.64
2023-03-06T16:19:45.273Z,10.36
2023-03-06T16:22:13.694Z,10.06
2023-03-06T16:24:41.682Z,10.02
2023-03-06T16:27:17.947Z,10.54
2023-03-06T16:29:47.071Z,10.66
2023-03-06T16:32:14.973Z,10.30
2023-03-06T16:34:42.787Z,9.77
2023-03-06T16:37:13.841Z,9.98
2023-03-06T16:39:41.828Z,9.93
2023-03-06T16:42:09.703Z,9.56
2023-03-06T16:44:37.538Z,9.65
2023-03-06T16:47:07.015Z,9.92
2023-03-06T16:49:34.761Z,9.81
2023-03-06T16:52:04.483Z,9.92
2023-03-06T16:54:32.219Z,9.64
2023-03-06T16:56:59.932Z,9.87
2023-03-06T16:59:27.698Z,9.95
2023-03-06T17:01:55.547Z,10.24
2023-03-06T17:04:24.616Z,9.48
2023-03-06T17:06:52.879Z,10.12
2023-03-06T17:09:20.635Z,10.00
2023-03-06T17:11:48.374Z,9.91
2023-03-06T17:14:16.227Z,9.91
2023-03-06T17:16:44.243Z,9.86
2023-03-06T17:19:14.375Z,9.44
2023-03-06T17:21:44.300Z,9.55
2023-03-06T17:24:12.282Z,9.68
2023-03-06T17:26:40.128Z,9.55
2023-03-06T17:29:09.301Z,9.38
2023-03-06T17:31:37.023Z,9.32
2023-03-06T17:34:05.004Z,9.42
2023-03-06T17:36:33.548Z,9.37
2023-03-06T17:39:04.274Z,9.56
2023-03-06T17:41:32.913Z,9.59
2023-03-06T17:44:01.720Z,9.69
2023-03-06T17:46:32.064Z,9.64
2023-03-06T17:49:00.643Z,9.84
2023-03-06T17:51:28.650Z,9.93
2023-03-06T17:53:57.358Z,9.59
2023-03-06T17:56:27.242Z,9.56
2023-03-06T17:58:55.390Z,9.47
2023-03-06T18:01:27.345Z,9.50
2023-03-06T18:03:55.544Z,9.83
2023-03-06T18:06:25.089Z,9.44
2023-03-06T18:08:53.144Z,9.66
2023-03-06T18:11:21.499Z,9.19
2023-03-06T18:13:50.670Z,9.46
2023-03-06T18:16:20.605Z,9.42
2023-03-06T18:18:48.629Z,9.50
2023-03-06T18:21:17.100Z,9.30
2023-03-06T18:23:45.123Z,9.37
2023-03-06T18:26:15.223Z,9.29
2023-03-06T18:28:44.963Z,9.44
2023-03-06T18:31:18.234Z,9.68
2023-03-06T18:33:48.298Z,9.62
2023-03-06T18:36:16.708Z,9.58
2023-03-06T18:38:45.654Z,9.52
2023-03-06T18:41:15.229Z,9.36
2023-03-06T18:43:43.203Z,9.20
2023-03-06T18:46:11.729Z,9.21
2023-03-06T18:48:40.923Z,9.13
2023-03-06T18:51:10.513Z,9.06
2023-03-06T18:53:40.062Z,8.84
2023-03-06T18:56:08.681Z,8.95
2023-03-06T18:58:36.494Z,8.79
2023-03-06T19:01:07.237Z,8.98
2023-03-06T19:03:35.439Z,9.29
2023-03-06T19:06:08.072Z,9.35
2023-03-06T19:08:36.714Z,9.54
2023-03-06T19:11:08.194Z,9.32
2023-03-06T19:13:36.079Z,9.29
2023-03-06T19:16:04.152Z,9.16
2023-03-06T19:18:32.021Z,9.28
2023-03-06T19:21:10.259Z,9.24
2023-03-06T19:23:38.070Z,9.28
2023-03-06T19:26:07.409Z,9.28
2023-03-06T19:28:36.128Z,9.17
2023-03-06T19:31:09.583Z,9.27
2023-03-06T19:33:37.856Z,9.08
2023-03-06T19:36:06.937Z,8.77
2023-03-06T19:38:36.449Z,8.91
2023-03-06T19:41:04.287Z,8.42
2023-03-06T19:43:32.196Z,8.80
2023-03-06T19:46:00.616Z,9.08
2023-03-06T19:48:28.507Z,8.90
2023-03-06T19:50:56.223Z,8.73
2023-03-06T19:53:23.993Z,8.73
2023-03-06T19:55:53.067Z,8.77
2023-03-06T19:58:20.759Z,8.78
2023-03-06T20:00:48.450Z,8.69
2023-03-06T20:03:16.152Z,9.02
2023-03-06T20:05:47.391Z,8.71
2023-03-06T20:08:15.179Z,8.82
2023-03-06T20:10:42.970Z,8.92
2023-03-06T20:13:12.269Z,8.98
2023-03-06T20:15:40.239Z,8.64
2023-03-06T20:18:08.287Z,8.88
2023-03-06T20:20:37.621Z,8.53
2023-03-06T20:23:05.629Z,8.77
2023-03-06T20:25:36.265Z,8.65
2023-03-06T20:28:04.264Z,8.41
2023-03-06T20:30:38.079Z,8.46
2023-03-06T20:33:06.343Z,8.69
2023-03-06T20:35:34.146Z,8.70
2023-03-06T20:38:01.899Z,8.98
2023-03-06T20:40:29.763Z,8.62
2023-03-06T20:42:57.526Z,8.31
2023-03-06T20:45:25.311Z,8.85
2023-03-06T20:47:56.200Z,9.01
2023-03-06T20:50:25.568Z,9.06
2023-03-06T20:52:54.863Z,9.18
2023-03-06T20:55:22.800Z,9.14
2023-03-06T20:57:50.815Z,9.29
2023-03-06T21:00:20.916Z,8.75
2023-03-06T21:02:48.744Z,8.75
2023-03-06T21:05:18.001Z,8.47
2023-03-06T21:07:45.691Z,8.18
2023-03-06T21:10:14.524Z,8.36
2023-03-06T21:12:42.375Z,8.29
2023-03-06T21:15:10.640Z,8.47
2023-03-06T21:17:38.821Z,8.49
2023-03-06T21:20:07.464Z,8.66
2023-03-06T21:22:36.541Z,8.49
2023-03-06T21:25:04.495Z,8.76
2023-03-06T21:27:32.276Z,8.66
2023-03-06T21:30:00.012Z,8.22
2023-03-06T21:32:27.920Z,8.28
2023-03-06T21:34:55.685Z,8.74
2023-03-06T21:37:23.504Z,8.84
2023-03-06T21:39:52.826Z,9.02
2023-03-06T21:42:20.585Z,9.05
2023-03-06T21:44:48.407Z,8.96
2023-03-06T21:47:16.108Z,8.45
2023-03-06T21:49:43.823Z,8.53
2023-03-06T21:52:11.563Z,8.16
2023-03-06T21:54:39.302Z,8.42
2023-03-06T21:57:08.478Z,8.17
2023-03-06T21:59:37.477Z,8.34
2023-03-06T22:02:05.490Z,8.28
2023-03-06T22:04:33.252Z,8.28
2023-03-06T22:07:01.120Z,8.37
2023-03-06T22:09:28.834Z,8.14
2023-03-06T22:11:57.297Z,8.56
2023-03-06T22:14:26.536Z,8.33
2023-03-06T22:16:56.680Z,8.73
2023-03-06T22:19:24.656Z,8.87
2023-03-06T22:21:52.464Z,8.64
2023-03-06T22:24:20.210Z,8.70
2023-03-06T22:26:48.383Z,8.41
2023-03-06T22:29:16.195Z,8.84
2023-03-06T22:31:45.391Z,8.86
2023-03-06T22:34:13.172Z,8.59
2023-03-06T22:36:40.945Z,8.58
2023-03-06T22:39:08.772Z,8.57
2023-03-06T22:41:36.497Z,8.36
2023-03-06T22:44:04.238Z,8.57
2023-03-06T22:46:33.369Z,8.43
2023-03-06T22:49:03.202Z,8.17
2023-03-06T22:51:31.065Z,8.22
2023-03-06T22:53:59.046Z,8.06
2023-03-06T22:56:26.891Z,8.26
2023-03-06T22:58:54.620Z,8.01
2023-03-06T23:01:25.144Z,8.52
2023-03-06T23:03:55.023Z,8.42
2023-03-06T23:06:25.890Z,8.26
2023-03-06T23:08:55.872Z,8.04
2023-03-06T23:11:24.362Z,8.46
2023-03-06T23:13:52.483Z,8.19
2023-03-06T23:16:20.264Z,8.31
2023-03-06T23:18:48.376Z,8.35
2023-03-06T23:21:18.298Z,8.16
2023-03-06T23:23:50.705Z,8.48
2023-03-06T23:26:20.601Z,8.10
2023-03-06T23:28:49.473Z,8.20
2023-03-06T23:31:19.329Z,8.28
2023-03-06T23:33:47.866Z,7.95
2023-03-06T23:36:17.731Z,7.90
2023-03-06T23:38:46.445Z,7.91
2023-03-06T23:41:18.054Z,8.16
2023-03-06T23:43:46.562Z,8.17
2023-03-06T23:46:14.990Z,8.16
2023-03-06T23:48:43.836Z,8.30
2023-03-06T23:51:15.212Z,8.41
2023-03-06T23:53:43.086Z,8.45
2023-03-06T23:56:11.686Z,8.63
2023-03-06T23:58:41.232Z,8.18
